createdAt,value
2022-09-27T00:06:57.922Z,216.47
2022-09-27T00:17:02.681Z,209.87
2022-09-27T00:27:06.099Z,293.40
2022-09-27T00:37:11.836Z,230.13
2022-09-27T00:47:24.604Z,203.77
2022-09-27T00:57:29.969Z,218.07
2022-09-27T01:07:33.447Z,200.50
2022-09-27T01:17:53.058Z,218.97
2022-09-27T01:28:24.563Z,284.53
2022-09-27T01:38:44.192Z,289.43
2022-09-27T01:48:52.223Z,291.03
2022-09-27T01:59:07.226Z,244.03
2022-09-27T02:09:14.659Z,223.23
2022-09-27T02:19:40.210Z,223.73
2022-09-27T02:29:51.005Z,201.50
2022-09-27T02:39:56.300Z,205.17
2022-09-27T02:50:26.492Z,207.73
2022-09-27T03:01:06.006Z,210.67
2022-09-27T03:11:22.213Z,212.47
2022-09-27T03:21:27.060Z,201.47
2022-09-27T03:31:30.611Z,211.43
2022-09-27T03:41:54.254Z,210.00
2022-09-27T03:51:57.857Z,238.03
2022-09-27T04:02:02.687Z,240.07
2022-09-27T04:12:26.027Z,240.90
2022-09-27T04:22:30.873Z,211.40
2022-09-27T04:32:34.486Z,202.60
2022-09-27T04:42:57.973Z,201.10
2022-09-27T04:53:01.702Z,202.50
2022-09-27T05:03:07.253Z,242.80
2022-09-27T05:13:30.550Z,242.37
2022-09-27T05:23:35.352Z,200.57
2022-09-27T05:33:39.349Z,207.07
2022-09-27T05:44:13.298Z,202.57
2022-09-27T05:54:24.196Z,206.07
2022-09-27T06:04:30.325Z,212.33
2022-09-27T06:14:56.377Z,210.87
2022-09-27T06:25:22.094Z,217.37
2022-09-27T06:35:39.276Z,218.33
2022-09-27T06:45:44.779Z,245.93
2022-09-27T06:56:16.421Z,239.00
2022-09-27T07:06:29.450Z,224.20
2022-09-27T07:16:39.441Z,222.70
2022-09-27T07:26:44.894Z,209.87
2022-09-27T07:36:49.870Z,216.87
2022-09-27T07:46:54.765Z,215.83
2022-09-27T07:57:03.364Z,218.30
2022-09-27T08:07:10.277Z,216.40
2022-09-27T08:17:18.367Z,212.13
2022-09-27T08:27:41.860Z,217.70
2022-09-27T08:38:12.157Z,214.20
2022-09-27T08:48:19.990Z,229.73
2022-09-27T08:58:29.758Z,217.50
2022-09-27T09:08:51.079Z,218.30
2022-09-27T09:19:18.262Z,218.35
2022-09-27T09:30:18.545Z,205.45
2022-09-27T09:40:31.291Z,198.07
2022-09-27T09:50:48.598Z,194.48
2022-09-27T10:00:57.593Z,196.95
2022-09-27T10:11:02.667Z,185.20
2022-09-27T10:21:35.089Z,195.85
2022-09-27T10:31:46.166Z,198.07
2022-09-27T10:41:53.274Z,194.85
2022-09-27T10:52:14.480Z,185.13
2022-09-27T11:02:23.562Z,189.32
2022-09-27T11:12:42.109Z,186.70
2022-09-27T11:23:27.948Z,187.75
2022-09-27T11:33:55.488Z,197.77
2022-09-27T11:44:27.052Z,195.90
2022-09-27T11:54:50.941Z,190.60
2022-09-27T12:05:32.599Z,204.48
2022-09-27T12:15:47.030Z,223.35
2022-09-27T12:25:54.421Z,205.90
2022-09-27T12:36:10.753Z,204.32
2022-09-27T12:46:30.819Z,214.73
2022-09-27T12:56:49.868Z,208.93
2022-09-27T13:07:19.222Z,201.20
2022-09-27T13:17:51.425Z,207.00
2022-09-27T13:28:36.652Z,201.27
2022-09-27T13:39:05.851Z,203.23
2022-09-27T13:49:23.635Z,210.07
2022-09-27T13:59:52.917Z,213.67
2022-09-27T14:10:24.444Z,207.30
2022-09-27T14:20:35.559Z,208.83
2022-09-27T14:30:40.907Z,201.93
2022-09-27T14:41:04.269Z,206.37
2022-09-27T14:51:21.841Z,209.07
2022-09-27T15:01:26.577Z,207.60
2022-09-27T15:11:34.898Z,209.57
2022-09-27T15:21:39.738Z,210.23
2022-09-27T15:31:43.371Z,216.27
2022-09-27T15:52:43.984Z,208.53
2022-09-27T16:02:47.731Z,214.87
2022-09-27T16:12:52.520Z,209.03
2022-09-27T16:22:57.173Z,216.77
2022-09-27T16:33:01.762Z,210.97
2022-09-27T16:43:07.453Z,206.07
2022-09-27T16:53:13.048Z,210.50
2022-09-27T17:03:16.406Z,205.27
2022-09-27T17:13:22.385Z,212.13
2022-09-27T17:23:25.784Z,213.60
2022-09-27T17:33:31.253Z,210.60
2022-09-27T17:43:36.478Z,222.73
2022-09-27T17:53:41.130Z,204.83
2022-09-27T18:03:44.965Z,218.47
2022-09-27T18:13:50.793Z,218.13
2022-09-27T18:23:56.641Z,220.70
2022-09-27T18:34:03.000Z,222.27
2022-09-27T18:44:07.926Z,225.07
2022-09-27T18:54:18.423Z,231.70
2022-09-27T19:04:24.823Z,225.27
2022-09-27T19:14:29.690Z,229.50
2022-09-27T19:24:33.061Z,223.77
2022-09-27T19:34:38.330Z,210.33
2022-09-27T19:44:41.573Z,220.77
2022-09-27T19:54:46.297Z,222.57
2022-09-27T20:04:49.588Z,228.20
2022-09-27T20:14:54.221Z,226.13
2022-09-27T20:24:57.813Z,224.73
2022-09-27T20:35:03.975Z,231.83
2022-09-27T20:45:08.190Z,214.00
2022-09-27T20:55:12.954Z,214.93
2022-09-27T21:05:16.397Z,218.03
2022-09-27T21:15:21.017Z,222.40
2022-09-27T21:25:24.760Z,232.23
2022-09-27T21:35:29.470Z,213.83
2022-09-27T21:45:33.261Z,218.10
2022-09-27T21:55:38.149Z,220.60
2022-09-27T22:05:45.640Z,220.63
2022-09-27T22:15:50.567Z,212.83
2022-09-27T22:25:53.836Z,210.73
2022-09-27T22:35:58.422Z,214.80
2022-09-27T22:46:02.233Z,214.53
2022-09-27T22:56:09.824Z,211.67
2022-09-27T23:06:14.160Z,209.30
2022-09-27T23:16:24.470Z,209.90
2022-09-27T23:26:29.561Z,207.73
2022-09-27T23:36:35.513Z,214.83
2022-09-27T23:46:40.151Z,211.23
2022-09-27T23:56:44.763Z,212.73
